Time;durP1;ratioP1;P1;durP2;ratioP2;P2;SDS_P1;SDS_P2;PMS_P1;PMS_P2;Temp;Humidity;BMP_temperature;BMP_pressure;BME280_temperature;BME280_humidity;BME280_pressure;Samples;Min_cycle;Max_cycle;Signal;HPM_P1;HPM_P2
2023/04/15 00:01:01;;;;;;;7.13;6.30;;;11.60;68.50;;;14.27;48.30;100946.16;5049745;28;20198;-61
2023/04/15 00:03:28;;;;;;;6.07;5.47;;;11.50;68.60;;;14.24;48.19;100951.81;5049282;28;20198;-61
2023/04/15 00:05:56;;;;;;;6.33;5.73;;;11.50;68.70;;;14.20;48.25;100944.47;5034170;28;20268;-59
2023/04/15 00:08:24;;;;;;;7.13;5.73;;;11.40;68.60;;;14.15;48.35;100947.69;5033554;28;20201;-59
2023/04/15 00:10:52;;;;;;;6.33;5.67;;;11.40;68.90;;;14.11;48.59;100945.63;5033933;28;20191;-59
2023/04/15 00:13:19;;;;;;;8.70;6.47;;;11.30;69.10;;;14.10;48.43;100943.97;5034080;28;20202;-62
2023/04/15 00:15:46;;;;;;;6.13;5.53;;;11.30;69.60;;;14.07;48.71;100947.81;5034037;28;20242;-57
2023/04/15 00:18:13;;;;;;;6.93;6.17;;;11.30;69.70;;;14.05;48.77;100943.72;5035101;28;20226;-58
2023/04/15 00:20:40;;;;;;;6.73;6.03;;;11.20;69.60;;;14.03;48.95;100948.41;5049567;28;20528;-59
2023/04/15 00:23:07;;;;;;;8.17;6.67;;;11.20;70.00;;;14.02;49.00;100946.78;5034527;28;20187;-58
2023/04/15 00:25:34;;;;;;;6.80;6.10;;;11.20;71.00;;;14.01;49.30;100942.47;5031995;28;20214;-58
2023/04/15 00:28:03;;;;;;;6.93;6.23;;;11.10;70.50;;;14.03;49.34;100940.47;5033427;28;20198;-58
2023/04/15 00:30:30;;;;;;;5.70;5.20;;;11.20;70.50;;;14.03;49.59;100936.00;5033710;28;20716;-59
2023/04/15 00:32:57;;;;;;;8.13;6.00;;;11.20;70.40;;;14.04;49.32;100939.47;5033529;28;20195;-59
2023/04/15 00:35:24;;;;;;;6.20;5.60;;;11.10;70.50;;;14.05;49.45;100939.25;5013391;28;20706;-60
2023/04/15 00:37:51;;;;;;;7.80;5.97;;;11.20;70.90;;;14.07;49.46;100934.59;5014044;28;20836;-59
2023/04/15 00:40:20;;;;;;;7.50;6.33;;;11.20;71.00;;;14.08;49.48;100930.13;5013830;28;20203;-60
2023/04/15 00:42:47;;;;;;;6.70;6.00;;;11.20;71.10;;;14.09;49.52;100931.78;5027910;28;20205;-57
2023/04/15 00:45:15;;;;;;;6.97;6.30;;;11.20;71.30;;;14.10;49.43;100934.22;5036673;28;20289;-58
2023/04/15 00:47:43;;;;;;;6.53;5.90;;;11.20;71.30;;;14.11;49.83;100935.03;5036914;28;20556;-61
2023/04/15 00:50:11;;;;;;;7.10;6.40;;;11.20;71.30;;;14.11;49.76;100935.03;5037125;28;20555;-59
2023/04/15 00:52:39;;;;;;;7.73;6.50;;;11.20;71.50;;;14.10;49.78;100928.09;5037681;28;20191;-57
2023/04/15 00:55:08;;;;;;;7.50;6.80;;;11.20;71.60;;;14.08;49.74;100930.13;5036873;28;20215;-58
2023/04/15 00:57:35;;;;;;;6.67;6.07;;;11.20;71.40;;;14.07;49.81;100931.16;5037454;28;20194;-56
2023/04/15 01:00:05;;;;;;;6.93;5.90;;;11.20;71.50;;;14.06;49.85;100921.56;5024795;28;20731;-61
2023/04/15 01:02:34;;;;;;;6.90;6.20;;;11.20;71.70;;;14.04;49.92;100911.16;5017081;28;20198;-60
2023/04/15 01:05:03;;;;;;;6.30;5.70;;;11.20;71.90;;;14.07;49.92;100920.56;5016681;28;20207;-60
2023/04/15 01:07:30;;;;;;;7.17;6.47;;;11.20;72.00;;;14.06;50.12;100910.97;5015463;28;20297;-58
2023/04/15 01:09:58;;;;;;;6.73;6.13;;;11.20;71.90;;;14.04;50.00;100916.47;5019710;28;20218;-58
2023/04/15 01:12:26;;;;;;;8.10;6.93;;;11.20;71.70;;;14.04;50.10;100902.41;5036762;28;20186;-59
2023/04/15 01:14:55;;;;;;;6.97;6.27;;;11.20;72.00;;;14.06;50.07;100910.97;5036738;28;20218;-57
2023/04/15 01:17:23;;;;;;;8.07;6.97;;;11.20;72.10;;;14.06;50.06;100917.09;5036746;28;20190;-59
2023/04/15 01:19:54;;;;;;;6.50;5.83;;;11.20;72.00;;;14.08;50.14;100915.06;5036672;28;20201;-60
2023/04/15 01:22:22;;;;;;;7.30;6.60;;;11.20;72.20;;;14.11;50.21;100913.84;5036578;28;20179;-60
2023/04/15 01:25:00;;;;;;;7.60;6.77;;;11.20;72.50;;;14.11;50.27;100906.75;5036204;28;20582;-61
2023/04/15 01:27:30;;;;;;;7.27;6.60;;;11.20;72.20;;;14.11;50.05;100919.16;5036213;28;20206;-57
2023/04/15 01:29:57;;;;;;;8.40;6.70;;;11.20;72.20;;;14.11;50.18;100904.09;5036481;28;20277;-56
2023/04/15 01:32:24;;;;;;;8.03;7.27;;;11.20;72.20;;;14.12;50.28;100907.56;5036536;28;20190;-59
2023/04/15 01:35:10;;;;;;;7.03;6.13;;;11.20;72.50;;;14.09;50.45;100902.66;5036321;28;20574;-58
2023/04/15 01:37:48;;;;;;;6.83;6.23;;;11.20;72.50;;;14.07;50.53;100902.81;5036616;28;20187;-60
2023/04/15 01:40:15;;;;;;;6.20;5.60;;;11.20;72.40;;;14.09;50.54;100900.00;5036340;28;20244;-60
2023/04/15 01:42:46;;;;;;;7.10;6.40;;;11.20;72.50;;;14.08;50.48;100909.78;5036082;28;20214;-61
2023/04/15 01:45:14;;;;;;;7.93;7.10;;;11.20;72.50;;;14.08;50.59;100912.41;5037061;28;20218;-60
2023/04/15 01:47:42;;;;;;;7.00;6.30;;;11.20;72.60;;;14.09;50.63;100911.41;5036318;28;20273;-57
2023/04/15 01:50:10;;;;;;;8.43;7.30;;;11.20;72.60;;;14.09;50.63;100915.88;5036288;28;20203;-60
2023/04/15 01:52:39;;;;;;;9.30;7.53;;;11.20;73.00;;;14.09;50.67;100902.66;5035861;28;20199;-58
2023/04/15 01:55:08;;;;;;;6.73;6.03;;;11.20;73.20;;;14.07;50.71;100902.03;5035535;28;20226;-58
2023/04/15 01:57:36;;;;;;;8.20;7.13;;;11.20;73.00;;;14.04;50.72;100897.13;5035677;28;20208;-56
2023/04/15 02:00:08;;;;;;;8.03;7.23;;;11.20;73.00;;;14.03;50.95;100895.47;5035901;28;20207;-61
2023/04/15 02:02:36;;;;;;;9.03;8.13;;;11.20;73.30;;;14.02;50.86;100897.31;5036181;28;20189;-60
2023/04/15 02:05:06;;;;;;;8.63;7.50;;;11.10;73.40;;;14.00;50.87;100903.81;5035708;28;20221;-60
2023/04/15 02:07:34;;;;;;;7.53;6.83;;;11.10;73.60;;;14.00;51.14;100912.53;5035709;28;20198;-58
2023/04/15 02:10:03;;;;;;;7.60;6.80;;;11.10;73.90;;;14.03;50.73;100911.34;5036072;28;20209;-59
2023/04/15 02:12:31;;;;;;;8.57;6.90;;;11.10;73.80;;;14.04;51.11;100905.88;5035398;28;20202;-59
2023/04/15 02:14:59;;;;;;;8.03;6.90;;;11.10;73.70;;;14.04;50.71;100913.00;5035372;28;20222;-60
2023/04/15 02:17:29;;;;;;;8.30;7.40;;;11.10;73.70;;;14.03;51.16;100906.88;5036492;28;20224;-56
2023/04/15 02:19:58;;;;;;;7.40;6.70;;;11.20;73.90;;;14.01;51.06;100902.78;5035330;28;20668;-60
2023/04/15 02:22:26;;;;;;;8.87;8.03;;;11.10;73.80;;;14.01;51.45;100897.50;5035208;28;20190;-58
2023/04/15 02:24:55;;;;;;;8.57;7.67;;;11.10;74.20;;;14.00;51.46;100895.88;5034931;28;20226;-59
2023/04/15 02:27:23;;;;;;;8.67;7.77;;;11.10;74.10;;;13.98;51.24;100897.88;5035262;28;20201;-59
2023/04/15 02:29:51;;;;;;;8.73;7.73;;;11.10;74.20;;;13.97;51.57;100902.38;5035341;28;20206;-59
2023/04/15 02:32:22;;;;;;;8.33;7.33;;;11.10;74.50;;;13.99;51.39;100896.88;5033859;28;20204;-62
2023/04/15 02:34:52;;;;;;;8.10;7.03;;;11.10;74.60;;;13.98;51.38;100892.56;5034405;28;20218;-59
2023/04/15 02:37:20;;;;;;;6.93;6.23;;;11.10;74.50;;;13.97;51.54;100893.59;5035170;28;20194;-61
2023/04/15 02:39:48;;;;;;;7.07;6.37;;;11.10;74.40;;;13.97;51.69;100896.25;5035223;28;20212;-58
2023/04/15 02:42:17;;;;;;;7.87;7.07;;;11.10;74.70;;;13.99;51.68;100902.16;5035083;28;20198;-56
2023/04/15 02:44:45;;;;;;;7.47;6.70;;;11.10;74.50;;;14.00;51.77;100911.75;5035075;28;20219;-59
2023/04/15 02:47:14;;;;;;;8.10;7.30;;;11.10;74.80;;;14.02;51.65;100909.72;5034937;28;20197;-60
2023/04/15 02:49:43;;;;;;;7.10;6.50;;;11.10;74.60;;;14.02;51.57;100905.25;5034810;28;20206;-60
2023/04/15 02:52:12;;;;;;;7.30;6.57;;;11.10;74.80;;;14.03;51.61;100911.34;5035004;28;20201;-60
2023/04/15 02:54:41;;;;;;;7.27;6.57;;;11.10;74.60;;;14.02;51.64;100904.44;5034429;28;20226;-60
2023/04/15 02:57:10;;;;;;;7.67;6.87;;;11.10;74.50;;;14.01;51.58;100905.44;5034452;28;20228;-61
2023/04/15 02:59:38;;;;;;;7.77;7.03;;;11.10;74.40;;;14.01;51.52;100908.06;5034850;28;20197;-64
2023/04/15 03:02:07;;;;;;;8.00;6.87;;;11.10;74.80;;;14.01;51.66;100908.91;5034660;28;20206;-57
2023/04/15 03:04:35;;;;;;;7.70;6.93;;;11.10;74.90;;;14.03;51.94;100906.06;5033703;28;20210;-59
2023/04/15 03:07:03;;;;;;;7.50;6.60;;;11.10;75.20;;;14.03;51.69;100900.75;5034489;28;20203;-60
2023/04/15 03:09:33;;;;;;;7.53;6.57;;;11.10;75.00;;;14.05;51.76;100904.03;5049728;28;20198;-60
2023/04/15 03:12:02;;;;;;;8.37;7.53;;;11.10;75.00;;;14.07;51.84;100907.31;5034018;28;20212;-59
2023/04/15 03:14:30;;;;;;;7.33;6.63;;;11.10;75.20;;;14.08;51.80;100908.94;5033972;28;20214;-56
2023/04/15 03:16:58;;;;;;;10.00;7.90;;;11.10;75.20;;;14.09;52.07;100903.47;5034772;28;20229;-60
2023/04/15 03:19:26;;;;;;;8.60;7.63;;;11.10;75.80;;;14.10;51.82;100901.63;5034532;28;20197;-59
2023/04/15 03:21:55;;;;;;;8.97;7.63;;;11.10;75.70;;;14.12;51.96;100900.41;5034454;28;20232;-59
2023/04/15 03:24:23;;;;;;;9.23;7.83;;;11.10;75.90;;;14.12;52.05;100903.06;5034063;28;20218;-59
2023/04/15 03:26:54;;;;;;;7.77;6.93;;;11.10;76.40;;;14.12;51.88;100894.34;5034200;28;20197;-61
2023/04/15 03:29:22;;;;;;;8.07;7.27;;;11.10;75.50;;;14.13;52.13;100898.59;5034534;28;20202;-59
2023/04/15 03:31:51;;;;;;;9.10;7.77;;;11.20;75.60;;;14.12;52.04;100891.69;5049080;28;20210;-60
2023/04/15 03:34:19;;;;;;;8.77;7.97;;;11.20;75.80;;;14.10;52.26;100891.03;5033891;28;20223;-60
2023/04/15 03:36:47;;;;;;;8.43;7.63;;;11.10;75.90;;;14.12;52.29;100899.63;5034022;28;20218;-58
2023/04/15 03:39:16;;;;;;;8.37;7.57;;;11.10;76.10;;;14.13;52.27;100895.94;5034171;28;20702;-61
2023/04/15 03:41:44;;;;;;;9.33;8.13;;;11.20;76.20;;;14.14;52.25;100887.00;5033943;28;20205;-60
2023/04/15 03:44:14;;;;;;;9.67;8.67;;;11.20;76.40;;;14.15;52.52;100892.09;5033631;28;20215;-63
2023/04/15 03:46:42;;;;;;;9.10;7.80;;;11.20;76.70;;;14.16;52.42;100898.22;5034143;28;20190;-58
2023/04/15 03:49:10;;;;;;;8.30;7.50;;;11.20;76.50;;;14.18;52.76;100894.38;5034135;28;20207;-59
2023/04/15 03:51:38;;;;;;;9.13;8.20;;;11.20;76.60;;;14.19;52.51;100895.19;5034702;28;20202;-58
2023/04/15 03:54:06;;;;;;;9.60;8.60;;;11.20;76.60;;;14.17;52.64;100886.59;5033992;28;20214;-60
2023/04/15 03:56:35;;;;;;;7.10;6.40;;;11.20;76.70;;;14.15;52.65;100894.75;5033801;28;20226;-60
2023/04/15 03:59:03;;;;;;;8.60;7.80;;;11.20;76.50;;;14.16;52.64;100896.41;5034199;28;20213;-59
2023/04/15 04:01:32;;;;;;;8.30;7.50;;;11.20;76.80;;;14.18;52.73;100896.19;5033517;28;20828;-61
2023/04/15 04:04:01;;;;;;;8.37;7.47;;;11.20;76.90;;;14.18;52.74;100893.53;5033832;28;20215;-59
2023/04/15 04:06:29;;;;;;;11.43;8.20;;;11.20;76.80;;;14.17;52.82;100894.53;5034468;28;20205;-61
2023/04/15 04:08:58;;;;;;;8.97;8.07;;;11.20;77.00;;;14.14;53.03;100887.00;5035781;28;20195;-60
2023/04/15 04:11:27;;;;;;;8.93;8.03;;;11.20;77.30;;;14.12;53.08;100894.34;5034227;28;20646;-59
2023/04/15 04:13:55;;;;;;;8.73;7.83;;;11.20;77.40;;;14.10;53.11;100891.84;5034076;28;20584;-58
2023/04/15 04:16:23;;;;;;;9.17;8.27;;;11.10;77.30;;;14.13;53.27;100898.59;5036371;28;20220;-58
2023/04/15 04:18:53;;;;;;;9.70;8.70;;;11.20;77.60;;;14.15;53.10;100894.75;5037662;28;20194;-61
2023/04/15 04:21:21;;;;;;;11.57;7.73;;;11.20;77.50;;;14.16;53.30;100898.22;5038168;28;20202;-59
2023/04/15 04:23:50;;;;;;;8.70;7.83;;;11.20;77.60;;;14.15;53.18;100902.69;5038143;28;20197;-60
2023/04/15 04:26:18;;;;;;;10.00;8.87;;;11.20;77.60;;;14.15;53.29;100901.88;5038003;28;20576;-58
2023/04/15 04:28:46;;;;;;;10.07;9.03;;;11.20;77.70;;;14.15;53.25;100904.50;5038175;28;20195;-61
2023/04/15 04:31:15;;;;;;;11.80;8.80;;;11.20;77.80;;;14.17;53.41;100907.78;5037849;28;20202;-58
2023/04/15 04:33:43;;;;;;;10.37;8.83;;;11.20;77.90;;;14.16;53.50;100906.97;5036692;28;20198;-60
2023/04/15 04:36:12;;;;;;;10.90;9.70;;;11.20;78.30;;;14.16;53.55;100906.16;5037767;28;20204;-59
2023/04/15 04:38:40;;;;;;;11.03;9.93;;;11.20;78.40;;;14.17;53.87;100905.13;5037780;28;20715;-57
2023/04/15 04:41:09;;;;;;;12.13;9.57;;;11.20;78.50;;;14.20;53.85;100913.53;5038613;28;20213;-60
2023/04/15 04:43:37;;;;;;;12.17;10.87;;;11.20;79.40;;;14.22;53.88;100905.38;5036751;28;20197;-60
2023/04/15 04:46:05;;;;;;;12.43;10.47;;;11.20;78.90;;;14.24;53.98;100903.34;5037158;28;20206;-58
2023/04/15 04:48:33;;;;;;;11.63;10.07;;;11.30;79.20;;;14.25;54.05;100899.69;5037488;28;20191;-59
2023/04/15 04:51:02;;;;;;;12.10;10.20;;;11.30;79.20;;;14.26;54.19;100901.34;5037041;28;20190;-59
2023/04/15 04:53:31;;;;;;;13.93;10.87;;;11.30;79.10;;;14.28;54.07;100899.31;5036995;28;20205;-57
2023/04/15 04:55:59;;;;;;;13.20;11.73;;;11.30;79.40;;;14.27;54.31;100895.03;5037014;28;20206;-59
2023/04/15 04:58:28;;;;;;;12.17;10.53;;;11.30;79.70;;;14.28;54.43;100899.31;5036974;28;20249;-60
2023/04/15 05:00:56;;;;;;;11.87;10.67;;;11.30;79.80;;;14.27;54.27;100913.56;5036665;28;20199;-59
2023/04/15 05:03:24;;;;;;;14.30;11.27;;;11.30;79.60;;;14.26;54.32;100918.03;5036670;28;20213;-60
2023/04/15 05:05:53;;;;;;;11.73;10.47;;;11.30;80.00;;;14.26;54.52;100910.09;5037055;28;20222;-60
2023/04/15 05:08:21;;;;;;;12.93;11.07;;;11.30;80.00;;;14.24;54.82;100914.75;5036421;28;20202;-59
2023/04/15 05:10:51;;;;;;;12.43;11.13;;;11.30;80.40;;;14.22;54.72;100919.44;5037176;28;20200;-59
2023/04/15 05:13:20;;;;;;;11.90;10.70;;;11.20;80.50;;;14.22;54.81;100915.97;5036203;28;20206;-57
2023/04/15 05:15:48;;;;;;;11.67;10.47;;;11.30;80.50;;;14.22;55.09;100915.97;5036470;28;20222;-59
2023/04/15 05:18:16;;;;;;;13.83;11.00;;;11.30;80.70;;;14.20;55.16;100918.00;5036428;28;20214;-59
2023/04/15 05:20:45;;;;;;;11.80;10.63;;;11.30;80.70;;;14.21;55.12;100914.34;5051869;28;20261;-59
2023/04/15 05:23:13;;;;;;;10.97;9.87;;;11.30;81.10;;;14.21;55.09;100914.34;5036109;28;20202;-59
2023/04/15 05:25:42;;;;;;;11.97;10.53;;;11.30;81.10;;;14.22;55.42;100910.66;5035995;28;20228;-59
2023/04/15 05:28:11;;;;;;;12.87;11.43;;;11.20;81.20;;;14.22;55.59;100914.13;5035460;28;20224;-58
2023/04/15 05:30:40;;;;;;;11.57;10.37;;;11.20;81.60;;;14.22;55.56;100915.97;5036996;28;20190;-60
2023/04/15 05:33:08;;;;;;;11.73;10.47;;;11.30;81.30;;;14.23;55.57;100923.72;5036275;28;20225;-59
2023/04/15 05:35:36;;;;;;;14.27;10.33;;;11.30;81.60;;;14.23;55.53;100921.09;5035932;28;20221;-60
2023/04/15 05:38:05;;;;;;;11.50;10.30;;;11.30;81.60;;;14.25;55.61;100929.66;5036124;28;20222;-58
2023/04/15 05:40:33;;;;;;;11.63;10.43;;;11.30;81.60;;;14.28;55.68;100925.78;5037140;28;20206;-60
2023/04/15 05:43:01;;;;;;;11.90;10.70;;;11.30;82.00;;;14.32;55.79;100931.53;5036911;28;20212;-60
2023/04/15 05:45:31;;;;;;;11.37;10.10;;;11.30;82.20;;;14.34;55.74;100927.69;5036042;28;20226;-59
2023/04/15 05:47:59;;;;;;;11.20;10.20;;;11.30;82.10;;;14.37;55.58;100922.00;5036228;28;20209;-60
2023/04/15 05:50:27;;;;;;;10.80;9.70;;;11.40;81.90;;;14.38;55.56;100925.47;5037459;28;20191;-62
2023/04/15 05:52:55;;;;;;;11.93;10.83;;;11.40;81.80;;;14.39;55.68;100927.91;5036292;28;20554;-61
2023/04/15 05:55:24;;;;;;;11.10;10.00;;;11.40;82.10;;;14.39;55.54;100925.28;5035893;28;20583;-61
2023/04/15 05:57:52;;;;;;;11.63;9.40;;;11.40;82.00;;;14.36;55.70;100928.31;5037858;28;20232;-59
2023/04/15 06:00:21;;;;;;;11.23;10.13;;;11.40;81.90;;;14.37;55.60;100931.78;5035922;28;20694;-60
2023/04/15 06:02:51;;;;;;;11.43;10.33;;;11.40;82.10;;;14.37;55.80;100926.47;5035618;28;20232;-60
2023/04/15 06:05:19;;;;;;;12.00;10.90;;;11.40;82.50;;;14.36;56.00;100930.16;5035497;28;20229;-59
2023/04/15 06:07:48;;;;;;;12.20;10.83;;;11.40;82.50;;;14.38;56.29;100936.06;5035243;28;20663;-59
2023/04/15 06:10:17;;;;;;;10.87;9.77;;;11.40;82.80;;;14.41;56.19;100941.78;5035277;28;20196;-60
2023/04/15 06:12:45;;;;;;;11.50;10.37;;;11.40;82.80;;;14.45;56.45;100937.75;5035144;28;20659;-59
2023/04/15 06:15:13;;;;;;;11.07;9.97;;;11.40;83.00;;;14.47;56.18;100935.72;5034725;28;20581;-60
2023/04/15 06:17:41;;;;;;;11.23;10.07;;;11.50;83.10;;;14.48;56.54;100937.34;5035687;28;20205;-60
2023/04/15 06:20:12;;;;;;;11.23;10.13;;;11.50;83.00;;;14.49;56.27;100939.00;5050744;28;20671;-58
2023/04/15 06:22:40;;;;;;;11.53;10.33;;;11.50;83.10;;;14.51;56.37;100944.91;5035855;28;20195;-60
2023/04/15 06:25:09;;;;;;;11.90;10.70;;;11.50;83.10;;;14.53;56.18;100950.81;5051415;28;20222;-58
2023/04/15 06:27:38;;;;;;;11.17;9.97;;;11.50;83.10;;;14.54;56.25;100952.47;5036332;28;20195;-59
2023/04/15 06:30:08;;;;;;;11.97;10.73;;;11.50;83.30;;;14.55;56.50;100954.09;5035855;28;20198;-61
2023/04/15 06:32:37;;;;;;;11.40;10.27;;;11.50;83.60;;;14.55;56.21;100956.75;5035282;28;20202;-61
2023/04/15 06:35:06;;;;;;;12.13;11.03;;;11.50;83.30;;;14.56;56.22;100955.75;5034557;28;20222;-61
2023/04/15 06:37:35;;;;;;;12.00;10.90;;;11.50;83.40;;;14.55;56.45;100956.75;5035210;28;20195;-58
2023/04/15 06:40:07;;;;;;;11.30;10.20;;;11.50;83.40;;;14.55;56.42;100961.22;5035747;28;20231;-59
2023/04/15 06:42:37;;;;;;;12.57;11.20;;;11.60;83.50;;;14.55;56.64;100964.69;5051434;28;20201;-57
2023/04/15 06:45:08;;;;;;;12.17;11.07;;;11.60;83.60;;;14.55;56.35;100964.69;5035180;28;20701;-59
2023/04/15 06:47:36;;;;;;;12.33;11.03;;;11.60;83.30;;;14.56;56.41;100969.00;5035704;28;20187;-60
2023/04/15 06:50:06;;;;;;;11.30;10.20;;;11.50;83.50;;;14.59;56.82;100965.97;5035679;28;20206;-59
2023/04/15 06:52:36;;;;;;;13.17;11.87;;;11.60;84.40;;;14.59;56.58;100970.44;5050582;28;20198;-60
2023/04/15 06:55:06;;;;;;;11.67;10.57;;;11.50;83.50;;;14.60;56.56;100974.69;5034797;28;20222;-63
2023/04/15 06:57:35;;;;;;;11.77;10.57;;;11.60;83.80;;;14.59;56.50;100971.25;5035124;28;20206;-57
2023/04/15 07:00:05;;;;;;;10.93;9.87;;;11.60;83.80;;;14.59;56.75;100973.91;5034679;28;20218;-64
2023/04/15 07:02:33;;;;;;;11.13;10.07;;;11.60;83.60;;;14.61;56.63;100973.69;5034968;28;20206;-59
2023/04/15 07:05:01;;;;;;;11.30;10.10;;;11.60;83.60;;;14.62;56.63;100968.19;5035146;28;20232;-61
2023/04/15 07:07:30;;;;;;;11.67;10.47;;;11.60;83.80;;;14.65;56.74;100974.94;5034594;28;20207;-59
2023/04/15 07:10:00;;;;;;;11.37;10.03;;;11.60;84.10;;;14.67;56.69;100981.69;5034443;28;20200;-60
2023/04/15 07:12:29;;;;;;;11.53;10.17;;;11.60;84.10;;;14.67;56.88;100973.72;5034652;28;20209;-59
2023/04/15 07:14:57;;;;;;;11.13;10.03;;;11.70;84.30;;;14.68;56.96;100970.09;5033842;28;20228;-57
2023/04/15 07:17:26;;;;;;;10.10;9.20;;;11.70;84.60;;;14.70;57.04;100969.88;5035034;28;20199;-58
2023/04/15 07:19:54;;;;;;;10.70;9.70;;;11.70;84.30;;;14.69;56.97;100969.03;5034641;28;20217;-60
2023/04/15 07:22:22;;;;;;;12.10;10.90;;;11.70;84.10;;;14.70;56.95;100968.03;5034459;28;20202;-59
2023/04/15 07:24:51;;;;;;;13.97;12.47;;;11.70;84.30;;;14.71;57.04;100972.31;5050030;28;20210;-60
2023/04/15 07:27:20;;;;;;;13.77;12.40;;;11.70;84.60;;;14.72;57.34;100966.00;5050036;28;20202;-65
2023/04/15 07:29:50;;;;;;;14.70;13.23;;;11.70;84.80;;;14.72;57.76;100975.78;5034883;28;20190;-60
2023/04/15 07:32:19;;;;;;;12.87;11.67;;;11.70;85.30;;;14.73;57.61;100966.84;5034369;28;20203;-61
2023/04/15 07:34:47;;;;;;;11.30;10.20;;;11.70;85.50;;;14.77;57.59;100962.78;5034470;28;20216;-59
2023/04/15 07:37:15;;;;;;;13.27;11.93;;;11.70;86.40;;;14.79;57.87;100966.88;5035310;28;20217;-59
2023/04/15 07:39:43;;;;;;;12.30;11.10;;;11.80;85.60;;;14.84;57.80;100985.66;5034715;28;20674;-60
2023/04/15 07:42:12;;;;;;;10.50;9.50;;;11.80;85.80;;;14.88;57.84;100973.63;5034431;28;20199;-61
2023/04/15 07:44:41;;;;;;;9.77;8.87;;;11.80;85.80;;;14.92;57.49;100976.72;5033601;28;20224;-59
2023/04/15 07:47:09;;;;;;;9.63;8.83;;;11.80;85.40;;;14.93;57.73;100982.84;5033704;28;20206;-60
2023/04/15 07:49:37;;;;;;;10.37;9.43;;;11.90;85.60;;;14.93;57.82;100983.63;5033195;28;20536;-60
2023/04/15 07:52:06;;;;;;;10.13;9.30;;;11.90;85.80;;;14.96;57.70;100987.72;5033539;28;20214;-59
2023/04/15 07:54:34;;;;;;;9.53;8.73;;;11.90;85.70;;;14.99;57.82;100982.06;5033455;28;20210;-59
2023/04/15 07:57:02;;;;;;;10.87;9.87;;;12.00;86.00;;;15.07;58.07;100989.84;5033848;28;20198;-61
2023/04/15 07:59:32;;;;;;;9.47;8.67;;;12.00;86.00;;;15.14;57.60;100983.53;5033066;28;20210;-62
2023/04/15 08:02:02;;;;;;;9.30;8.60;;;12.00;85.80;;;15.19;57.61;100989.06;5033101;28;20572;-58
2023/04/15 08:04:31;;;;;;;8.90;8.17;;;12.10;85.90;;;15.22;57.42;100983.38;5032740;28;20249;-58
2023/04/15 08:06:59;;;;;;;7.70;7.10;;;12.10;85.70;;;15.26;57.38;100989.91;5033647;28;20195;-59
2023/04/15 08:09:27;;;;;;;8.20;7.53;;;12.20;85.70;;;15.29;57.61;100978.91;5033417;28;20202;-59
2023/04/15 08:11:56;;;;;;;7.17;6.60;;;12.20;85.50;;;15.26;57.26;100975.84;5033379;28;20194;-59
2023/04/15 08:14:24;;;;;;;7.67;7.07;;;12.20;85.70;;;15.23;57.45;100984.19;5032725;28;20222;-61
2023/04/15 08:16:52;;;;;;;6.43;5.93;;;12.10;85.70;;;15.20;57.78;100982.75;5033815;28;20202;-60
2023/04/15 08:19:23;;;;;;;6.97;6.47;;;12.20;85.90;;;15.22;57.65;100995.81;5033795;28;20199;-58
2023/04/15 08:21:51;;;;;;;6.60;6.00;;;12.20;85.90;;;15.22;57.73;100993.16;5034823;28;20209;-60
2023/04/15 08:24:19;;;;;;;6.53;6.03;;;12.20;86.00;;;15.20;57.86;100992.53;5032909;28;20224;-60
2023/04/15 08:26:47;;;;;;;6.70;6.20;;;12.20;86.00;;;15.20;57.99;100996.00;5033681;28;20199;-60
2023/04/15 08:29:16;;;;;;;6.40;5.90;;;12.20;86.00;;;15.19;57.92;100990.91;5033320;28;20202;-59
2023/04/15 08:31:44;;;;;;;6.67;6.13;;;12.20;85.60;;;15.18;57.70;100997.22;5033141;28;20199;-59
2023/04/15 08:34:13;;;;;;;5.77;5.27;;;12.20;85.80;;;15.19;57.73;100993.56;5033355;28;20222;-61
2023/04/15 08:36:42;;;;;;;6.57;6.07;;;12.20;85.70;;;15.22;57.94;100998.44;5033070;28;20676;-59
2023/04/15 08:39:11;;;;;;;6.80;6.20;;;12.20;85.90;;;15.23;57.86;100998.28;5033858;28;20224;-57
2023/04/15 08:41:46;;;;;;;6.30;5.80;;;12.20;86.00;;;15.24;57.55;100991.13;5032807;28;20206;-62
2023/04/15 08:44:15;;;;;;;6.67;6.07;;;12.20;86.00;;;15.26;57.60;100989.09;5033378;28;20226;-58
2023/04/15 08:46:43;;;;;;;6.10;5.57;;;12.20;86.00;;;15.29;58.07;100988.69;5034046;28;20201;-61
2023/04/15 08:49:12;;;;;;;6.27;5.67;;;12.30;86.00;;;15.34;57.87;100996.88;5033869;28;20203;-62
2023/04/15 08:51:42;;;;;;;6.90;6.30;;;12.30;86.20;;;15.35;57.78;100987.91;5034150;28;20205;-59
2023/04/15 08:54:11;;;;;;;6.80;6.30;;;12.30;86.20;;;15.34;57.89;100996.88;5032544;28;20242;-59
2023/04/15 08:56:41;;;;;;;8.10;7.30;;;12.30;86.50;;;15.34;58.16;100991.56;5032745;28;20209;-59
2023/04/15 08:59:10;;;;;;;9.77;8.93;;;12.30;86.60;;;15.36;58.22;100989.53;5027734;28;20655;-61
2023/04/15 09:01:40;;;;;;;9.70;8.80;;;12.30;86.60;;;15.38;58.18;100998.91;5028746;28;20568;-59
2023/04/15 09:04:11;;;;;;;8.83;8.03;;;12.30;86.70;;;15.40;57.93;100991.59;5015593;28;20233;-59
2023/04/15 09:06:40;;;;;;;7.77;7.17;;;12.30;86.50;;;15.40;57.87;100996.09;5015953;28;20250;-60
2023/04/15 09:09:13;;;;;;;6.43;5.83;;;12.30;86.50;;;15.43;58.17;100995.66;5016813;28;20559;-58
2023/04/15 09:11:41;;;;;;;6.10;5.50;;;12.40;86.80;;;15.48;58.13;101010.00;5033016;28;20189;-60
2023/04/15 09:14:10;;;;;;;5.33;4.93;;;12.40;86.60;;;15.50;57.82;101012.47;5036027;28;20269;-61
2023/04/15 09:17:03;;;;;;;5.23;4.77;;;12.40;86.10;;;15.47;57.69;101023.50;5036405;28;20198;-60
2023/04/15 09:19:33;;;;;;;5.73;5.23;;;12.50;86.20;;;15.49;57.75;101024.94;5022112;28;20503;-58
2023/04/15 09:22:01;;;;;;;5.40;4.97;;;12.50;85.90;;;15.49;57.83;101024.94;5036278;28;20323;-60
2023/04/15 09:24:39;;;;;;;6.77;6.10;;;12.50;86.00;;;15.51;57.76;101024.72;5036330;28;20228;-57
2023/04/15 09:27:08;;;;;;;6.77;6.17;;;12.50;86.10;;;15.54;58.14;101021.66;5036105;28;20586;-60
2023/04/15 09:29:36;;;;;;;5.93;5.33;;;12.50;86.00;;;15.55;58.08;101031.25;5035710;28;20546;-61
2023/04/15 09:32:13;;;;;;;6.43;5.93;;;12.50;86.20;;;15.55;57.55;101028.59;5035707;28;20195;-60
2023/04/15 09:34:42;;;;;;;5.97;5.50;;;12.50;86.00;;;15.56;57.79;101027.59;5035314;28;20210;-62
2023/04/15 09:37:12;;;;;;;5.47;4.97;;;12.50;86.00;;;15.55;57.70;101031.25;5035414;28;20202;-57
2023/04/15 09:40:00;;;;;;;4.97;4.60;;;12.50;85.90;;;15.53;57.49;101039.41;5036966;28;20675;-57
2023/04/15 09:42:28;;;;;;;5.90;5.40;;;12.50;86.00;;;15.52;57.92;101037.78;5035846;28;20300;-60
2023/04/15 09:45:07;;;;;;;5.30;4.90;;;12.50;86.50;;;15.53;57.67;101043.91;5035350;28;20212;-59
2023/04/15 09:47:36;;;;;;;5.40;4.90;;;12.50;86.50;;;15.57;57.97;101045.13;5015799;28;20207;-58
2023/04/15 09:50:06;;;;;;;4.90;4.50;;;12.60;86.40;;;15.61;57.92;101050.88;5016023;28;20201;-60
2023/04/15 09:52:42;;;;;;;4.93;4.53;;;12.50;86.30;;;15.60;58.03;101050.03;5015906;28;20203;-60
2023/04/15 09:55:13;;;;;;;4.20;3.80;;;12.60;86.40;;;15.59;57.65;101053.75;5028586;28;20218;-61
2023/04/15 09:57:43;;;;;;;5.00;4.60;;;12.60;86.10;;;15.58;57.86;101050.25;5035437;28;20232;-58
2023/04/15 10:00:12;;;;;;;4.13;3.73;;;12.60;86.10;;;15.60;58.02;101055.34;5035248;28;20206;-58
2023/04/15 10:02:42;;;;;;;4.63;4.23;;;12.60;86.00;;;15.64;57.39;101051.31;5034982;28;20217;-60
2023/04/15 10:05:13;;;;;;;4.33;3.93;;;12.60;86.20;;;15.70;57.76;101060.28;5034912;28;20232;-61
2023/04/15 10:07:42;;;;;;;5.07;4.47;;;12.70;86.30;;;15.72;57.70;101059.06;5035070;28;20195;-61
2023/04/15 10:10:13;;;;;;;4.73;4.33;;;12.70;86.20;;;15.75;57.67;101058.69;5035304;28;20194;-60
2023/04/15 10:12:42;;;;;;;5.27;4.73;;;12.70;86.20;;;15.80;57.56;101052.75;5035435;28;20248;-59
2023/04/15 10:15:16;;;;;;;5.27;4.87;;;12.80;86.10;;;15.83;57.88;101050.50;5036077;28;20228;-58